createdAt,value
2022-08-10T00:01:08.500Z,39.10
2022-08-10T00:04:09.973Z,40.29
2022-08-10T00:07:22.757Z,39.55
2022-08-10T00:10:26.786Z,39.67
2022-08-10T00:13:28.406Z,38.86
2022-08-10T00:16:29.883Z,39.06
2022-08-10T00:20:02.456Z,40.69
2022-08-10T00:22:57.413Z,40.59
2022-08-10T00:25:59.689Z,40.65
2022-08-10T00:29:01.146Z,39.09
2022-08-10T00:32:02.848Z,39.61
2022-08-10T00:35:05.161Z,38.91
2022-08-10T00:38:06.619Z,40.49
2022-08-10T00:41:08.077Z,41.67
2022-08-10T00:44:09.469Z,42.79
2022-08-10T00:47:36.287Z,41.10
2022-08-10T00:50:34.409Z,40.91
2022-08-10T00:53:35.931Z,40.56
2022-08-10T00:57:15.774Z,41.81
2022-08-10T01:00:00.478Z,42.32
2022-08-10T01:03:02.194Z,42.26
2022-08-10T01:06:36.499Z,41.69
2022-08-10T01:09:57.339Z,41.42
2022-08-10T01:13:10.960Z,40.29
2022-08-10T01:16:20.885Z,41.42
2022-08-10T01:19:22.290Z,40.44
2022-08-10T01:22:28.950Z,41.13
2022-08-10T01:26:11.459Z,40.57
2022-08-10T01:29:35.234Z,41.09
2022-08-10T01:32:50.052Z,41.74
2022-08-10T01:36:09.485Z,42.38
2022-08-10T01:39:15.797Z,42.08
2022-08-10T01:42:22.285Z,43.42
2022-08-10T01:45:26.166Z,42.52
2022-08-10T01:48:34.431Z,41.38
2022-08-10T01:51:43.633Z,41.83
2022-08-10T01:54:46.430Z,42.83
2022-08-10T01:57:50.300Z,41.54
2022-08-10T02:00:54.708Z,42.59
2022-08-10T02:04:04.213Z,43.58
2022-08-10T02:07:11.396Z,42.14
2022-08-10T02:10:15.657Z,42.79
2022-08-10T02:13:19.622Z,42.51
2022-08-10T02:16:23.420Z,41.96
2022-08-10T02:19:26.210Z,43.01
2022-08-10T02:22:37.816Z,41.66
2022-08-10T02:25:43.779Z,42.29
2022-08-10T02:28:46.249Z,43.32
2022-08-10T02:31:51.398Z,42.93
2022-08-10T02:34:57.312Z,42.47
2022-08-10T02:38:06.462Z,44.16
2022-08-10T02:45:14.336Z,43.52
2022-08-10T02:45:19.340Z,43.54
2022-08-10T02:48:39.521Z,43.52
2022-08-10T02:52:06.612Z,43.48
2022-08-10T02:55:30.284Z,43.19
2022-08-10T02:58:40.667Z,42.71
2022-08-10T03:01:46.450Z,43.73
2022-08-10T03:04:54.970Z,43.81
2022-08-10T03:08:05.713Z,44.32
2022-08-10T03:11:10.012Z,44.96
2022-08-10T03:14:13.533Z,45.04
2022-08-10T03:17:16.849Z,44.03
2022-08-10T03:20:37.084Z,43.99
2022-08-10T03:23:42.849Z,44.82
2022-08-10T03:26:44.394Z,45.21
2022-08-10T03:30:29.512Z,45.38
2022-08-10T03:33:08.934Z,44.65
2022-08-10T03:36:40.276Z,45.81
2022-08-10T03:39:32.377Z,45.25
2022-08-10T03:42:37.168Z,46.23
2022-08-10T03:45:54.246Z,45.66
2022-08-10T03:49:00.894Z,44.92
2022-08-10T03:52:03.092Z,44.38
2022-08-10T03:55:05.430Z,46.04
2022-08-10T03:58:07.042Z,45.26
2022-08-10T04:01:09.858Z,47.06
2022-08-10T04:04:14.644Z,46.60
2022-08-10T04:07:19.256Z,45.12
2022-08-10T04:10:20.847Z,45.97
2022-08-10T04:13:22.891Z,46.11
2022-08-10T04:16:24.463Z,45.59
2022-08-10T04:19:28.355Z,46.46
2022-08-10T04:22:30.536Z,47.19
2022-08-10T04:25:32.191Z,47.22
2022-08-10T04:28:34.771Z,47.30
2022-08-10T04:31:37.072Z,47.70
2022-08-10T04:34:44.776Z,46.06
2022-08-10T04:37:49.412Z,46.61
2022-08-10T04:40:51.589Z,46.38
2022-08-10T04:43:52.993Z,46.61
2022-08-10T04:46:57.821Z,48.49
2022-08-10T04:50:00.806Z,48.15
2022-08-10T04:53:04.032Z,47.49
2022-08-10T04:56:05.704Z,47.73
2022-08-10T04:59:09.073Z,46.80
2022-08-10T05:02:29.206Z,49.09
2022-08-10T05:05:32.043Z,48.31
2022-08-10T05:08:33.465Z,48.00
2022-08-10T05:11:34.968Z,48.27
2022-08-10T05:14:36.426Z,48.35
2022-08-10T05:17:39.062Z,50.94
2022-08-10T05:20:40.591Z,51.10
2022-08-10T05:23:42.023Z,49.21
2022-08-10T05:27:00.559Z,52.85
2022-08-10T05:30:06.946Z,49.22
2022-08-10T05:33:09.128Z,50.05
2022-08-10T05:36:10.829Z,52.34
2022-08-10T05:39:13.304Z,49.39
2022-08-10T05:42:17.786Z,48.87
2022-08-10T05:45:22.028Z,52.41
2022-08-10T05:48:57.115Z,51.51
2022-08-10T05:51:45.212Z,52.87
2022-08-10T05:54:47.602Z,51.83
2022-08-10T05:57:49.201Z,55.58
2022-08-10T06:00:54.485Z,56.30
2022-08-10T06:03:58.638Z,57.18
2022-08-10T06:07:01.984Z,60.10
2022-08-10T06:10:03.990Z,66.33
2022-08-10T06:13:34.378Z,64.31
2022-08-10T06:16:53.489Z,59.69
2022-08-10T06:19:56.816Z,61.77
2022-08-10T06:23:03.209Z,57.90
2022-08-10T06:26:11.182Z,58.06
2022-08-10T06:29:16.812Z,59.30
2022-08-10T06:32:20.079Z,61.63
2022-08-10T06:35:23.508Z,66.42
2022-08-10T06:38:27.052Z,62.59
2022-08-10T06:41:57.779Z,57.26
2022-08-10T06:45:00.599Z,55.22
2022-08-10T06:48:28.439Z,50.95
2022-08-10T06:51:33.365Z,52.48
2022-08-10T06:54:36.704Z,55.43
2022-08-10T06:57:39.188Z,52.30
2022-08-10T07:00:43.465Z,50.70
2022-08-10T07:03:48.931Z,48.64
2022-08-10T07:06:50.985Z,49.22
2022-08-10T07:09:55.526Z,51.35
2022-08-10T07:12:59.199Z,48.04
2022-08-10T07:16:01.627Z,48.39
2022-08-10T07:19:04.886Z,48.29
2022-08-10T07:22:07.659Z,48.15
2022-08-10T07:25:11.993Z,46.74
2022-08-10T07:28:13.856Z,45.19
2022-08-10T07:31:34.814Z,45.78
2022-08-10T07:34:41.640Z,46.21
2022-08-10T07:37:47.983Z,46.15
2022-08-10T07:40:51.676Z,46.90
2022-08-10T07:43:56.771Z,46.23
2022-08-10T07:47:03.889Z,43.69
2022-08-10T07:50:08.616Z,43.98
2022-08-10T07:53:19.262Z,44.01
2022-08-10T07:56:47.905Z,43.29
2022-08-10T07:59:55.490Z,43.58
2022-08-10T08:02:59.667Z,41.88
2022-08-10T08:06:05.596Z,42.57
2022-08-10T08:09:13.756Z,41.76
2022-08-10T08:12:16.657Z,41.29
2022-08-10T08:16:18.488Z,41.93
2022-08-10T08:18:58.447Z,41.33
2022-08-10T08:24:08.090Z,41.54
2022-08-10T08:25:29.426Z,40.50
2022-08-10T08:28:34.557Z,40.94
2022-08-10T08:31:37.868Z,39.82
2022-08-10T08:35:03.564Z,38.87
2022-08-10T08:38:32.243Z,39.63
2022-08-10T08:42:05.421Z,39.52
2022-08-10T08:45:06.981Z,38.07
2022-08-10T08:48:11.542Z,38.59
2022-08-10T08:52:07.018Z,39.92
2022-08-10T08:56:05.078Z,38.06
2022-08-10T08:58:47.694Z,37.65
2022-08-10T09:02:25.485Z,37.91
2022-08-10T09:05:59.377Z,36.00
2022-08-10T09:09:27.100Z,37.67
2022-08-10T09:12:37.756Z,36.86
2022-08-10T09:16:30.011Z,35.22
2022-08-10T09:19:55.221Z,37.19
2022-08-10T09:23:13.276Z,34.95
2022-08-10T09:26:20.883Z,34.53
2022-08-10T09:29:33.195Z,36.02
2022-08-10T09:36:15.243Z,34.25
2022-08-10T09:36:33.043Z,34.85
2022-08-10T09:40:58.103Z,33.70
2022-08-10T09:43:51.062Z,32.48
2022-08-10T09:47:01.666Z,33.80
2022-08-10T09:50:18.288Z,32.23
2022-08-10T09:53:24.543Z,31.02
2022-08-10T09:56:47.848Z,33.41
2022-08-10T10:00:25.881Z,32.77
2022-08-10T10:03:36.151Z,32.17
2022-08-10T10:07:05.718Z,33.92
2022-08-10T10:10:19.639Z,31.61
2022-08-10T10:13:52.806Z,30.73
2022-08-10T10:17:18.840Z,30.02
2022-08-10T10:20:29.260Z,30.53
2022-08-10T10:24:19.782Z,30.58
2022-08-10T10:27:40.174Z,30.43
2022-08-10T10:30:59.891Z,31.59
2022-08-10T10:34:20.073Z,30.23
2022-08-10T10:38:01.027Z,31.02
2022-08-10T10:41:11.452Z,31.13
2022-08-10T10:44:50.492Z,31.51
2022-08-10T10:47:59.328Z,30.45
2022-08-10T10:51:27.158Z,30.94
2022-08-10T10:54:40.495Z,31.05
2022-08-10T10:58:06.633Z,30.44
2022-08-10T11:01:45.716Z,30.05
2022-08-10T11:05:12.737Z,30.70
2022-08-10T11:08:28.998Z,30.60
2022-08-10T11:12:01.855Z,30.22
2022-08-10T11:15:20.965Z,29.18
2022-08-10T11:18:29.087Z,30.44
2022-08-10T11:21:51.668Z,30.98
2022-08-10T11:25:13.141Z,30.66
2022-08-10T11:28:43.233Z,30.08
2022-08-10T11:31:50.572Z,31.26
2022-08-10T11:35:10.235Z,30.22
2022-08-10T11:38:32.266Z,28.27
2022-08-10T11:42:11.986Z,29.47
2022-08-10T11:45:35.204Z,29.83
2022-08-10T11:48:54.508Z,29.57
2022-08-10T11:52:04.472Z,30.01
2022-08-10T11:55:15.547Z,29.79
2022-08-10T11:58:39.616Z,28.34
2022-08-10T12:01:41.697Z,27.55
2022-08-10T12:04:50.357Z,29.41
2022-08-10T12:10:02.349Z,27.76
2022-08-10T12:11:24.611Z,27.38
2022-08-10T12:14:44.969Z,26.30
2022-08-10T12:17:52.040Z,25.84
2022-08-10T12:21:02.036Z,27.02
2022-08-10T12:24:11.722Z,26.22
2022-08-10T12:27:27.195Z,26.28
2022-08-10T12:30:36.093Z,25.17
2022-08-10T12:34:02.123Z,25.81
2022-08-10T12:37:34.784Z,27.53
2022-08-10T12:40:45.871Z,26.05
2022-08-10T12:44:06.437Z,25.62
2022-08-10T12:47:20.052Z,25.75
2022-08-10T12:50:30.502Z,25.45
2022-08-10T12:53:49.976Z,27.98
2022-08-10T12:56:59.565Z,26.17
2022-08-10T13:00:02.223Z,26.04
2022-08-10T13:03:07.077Z,25.51
2022-08-10T13:06:10.674Z,25.47
2022-08-10T13:09:14.100Z,25.81
2022-08-10T13:12:35.886Z,25.83
2022-08-10T13:15:50.427Z,24.91
2022-08-10T13:18:54.382Z,25.84
2022-08-10T13:21:57.925Z,24.22
2022-08-10T13:25:03.340Z,24.53
2022-08-10T13:28:36.229Z,24.72
2022-08-10T13:32:04.498Z,23.63
2022-08-10T13:34:56.925Z,25.37
2022-08-10T13:38:01.715Z,22.92
2022-08-10T13:41:04.028Z,24.32
2022-08-10T13:44:08.088Z,23.38
2022-08-10T13:47:11.205Z,22.55
2022-08-10T13:50:19.314Z,24.51
2022-08-10T13:53:21.589Z,23.97
2022-08-10T13:56:24.609Z,23.90
2022-08-10T14:00:35.062Z,23.02
2022-08-10T14:03:04.997Z,24.41
2022-08-10T14:06:11.148Z,22.89
2022-08-10T14:09:13.272Z,22.12
2022-08-10T14:12:18.864Z,22.02
2022-08-10T14:15:36.350Z,23.26
2022-08-10T14:18:39.165Z,25.00
2022-08-10T14:21:41.349Z,25.29
2022-08-10T14:24:42.858Z,23.60
2022-08-10T14:28:03.035Z,25.00
2022-08-10T14:31:07.170Z,23.85
2022-08-10T14:34:10.720Z,25.23
2022-08-10T14:37:18.396Z,25.12
2022-08-10T14:40:25.501Z,22.99
2022-08-10T14:43:40.550Z,23.86
2022-08-10T14:46:51.638Z,25.57
2022-08-10T14:49:59.472Z,25.58
2022-08-10T14:53:16.240Z,24.42
2022-08-10T14:56:27.288Z,25.31
2022-08-10T15:00:25.251Z,23.05
2022-08-10T15:02:58.007Z,22.83
2022-08-10T15:06:03.726Z,23.74
2022-08-10T15:09:12.681Z,22.71
2022-08-10T15:12:26.350Z,24.70
2022-08-10T15:15:31.301Z,25.47
2022-08-10T15:18:58.356Z,24.79
2022-08-10T15:22:18.146Z,22.50
2022-08-10T15:25:26.419Z,22.92
2022-08-10T15:29:08.464Z,24.67
2022-08-10T15:32:11.349Z,21.45
2022-08-10T15:35:31.612Z,23.50
2022-08-10T15:38:38.045Z,25.03
2022-08-10T15:41:57.448Z,22.75
2022-08-10T15:45:01.678Z,22.15
2022-08-10T15:48:06.172Z,25.60
2022-08-10T15:51:27.955Z,22.49
2022-08-10T15:54:38.096Z,22.77
2022-08-10T15:57:44.267Z,21.77
2022-08-10T16:02:13.159Z,23.13
2022-08-10T16:04:49.504Z,25.60
2022-08-10T16:07:57.768Z,22.49
2022-08-10T16:11:03.606Z,23.09
2022-08-10T16:14:21.093Z,23.48
2022-08-10T16:17:23.954Z,26.12
2022-08-10T16:20:32.411Z,22.84
2022-08-10T16:23:40.641Z,24.47
2022-08-10T16:26:46.762Z,27.50
2022-08-10T16:29:56.544Z,24.29
2022-08-10T16:33:00.343Z,26.02
2022-08-10T16:36:04.503Z,27.68
2022-08-10T16:39:08.110Z,28.34
2022-08-10T16:42:23.486Z,23.92
2022-08-10T16:45:35.553Z,24.13
2022-08-10T16:48:49.441Z,21.59
2022-08-10T16:51:53.237Z,25.22
2022-08-10T16:55:01.082Z,22.18
2022-08-10T16:58:43.543Z,22.76
2022-08-10T17:01:51.655Z,23.58
2022-08-10T17:04:57.314Z,21.57
2022-08-10T17:08:08.995Z,22.76
2022-08-10T17:11:14.065Z,24.41
2022-08-10T17:14:16.361Z,23.78
2022-08-10T17:17:21.056Z,24.24
2022-08-10T17:20:31.356Z,26.55
2022-08-10T17:23:37.539Z,24.75
2022-08-10T17:26:40.852Z,24.79
2022-08-10T17:29:58.794Z,27.77
2022-08-10T17:33:14.562Z,23.97
2022-08-10T17:36:17.086Z,25.75
2022-08-10T17:39:24.883Z,25.65
2022-08-10T17:42:27.115Z,25.64
2022-08-10T17:45:48.399Z,26.26
2022-08-10T17:48:53.341Z,27.60
2022-08-10T17:51:57.778Z,27.16
2022-08-10T17:55:07.469Z,26.26
2022-08-10T17:58:17.948Z,30.45
2022-08-10T18:01:38.224Z,31.45
2022-08-10T18:04:48.578Z,29.44
2022-08-10T18:07:52.770Z,28.08
2022-08-10T18:10:57.930Z,30.92
2022-08-10T18:14:02.594Z,30.00
2022-08-10T18:17:11.034Z,30.05
2022-08-10T18:20:16.084Z,30.23
2022-08-10T18:23:31.505Z,29.57
2022-08-10T18:26:37.726Z,31.94
2022-08-10T18:29:44.244Z,31.28
2022-08-10T18:32:49.962Z,30.09
2022-08-10T18:35:52.663Z,31.56
2022-08-10T18:38:57.107Z,32.48
2022-08-10T18:42:10.778Z,34.27
2022-08-10T18:45:33.263Z,36.32
2022-08-10T18:48:41.854Z,36.67
2022-08-10T18:51:47.209Z,36.22
2022-08-10T18:54:50.967Z,37.32
2022-08-10T18:58:21.906Z,39.36
2022-08-10T19:01:54.007Z,37.03
2022-08-10T19:05:31.131Z,37.28
2022-08-10T19:08:48.744Z,37.06
2022-08-10T19:12:00.742Z,39.82
2022-08-10T19:15:06.631Z,40.05
2022-08-10T19:18:17.799Z,40.37
2022-08-10T19:21:28.448Z,38.96
2022-08-10T19:24:54.588Z,39.92
2022-08-10T19:28:10.248Z,39.03
2022-08-10T19:31:23.858Z,43.25
2022-08-10T19:34:58.274Z,44.12
2022-08-10T19:38:32.103Z,43.99
2022-08-10T19:41:45.221Z,41.83
2022-08-10T19:44:57.788Z,40.90
2022-08-10T19:48:18.287Z,40.09
2022-08-10T19:51:26.406Z,41.61
2022-08-10T19:54:50.351Z,40.93
2022-08-10T19:58:20.997Z,42.96
2022-08-10T20:01:25.575Z,42.10
2022-08-10T20:04:58.946Z,43.45
2022-08-10T20:08:07.523Z,43.89
2022-08-10T20:11:44.044Z,43.67
2022-08-10T20:14:49.474Z,43.94
2022-08-10T20:18:07.786Z,45.67
2022-08-10T20:21:32.197Z,44.04
2022-08-10T20:24:46.758Z,50.10
2022-08-10T20:28:19.200Z,44.93
2022-08-10T20:31:28.547Z,47.89
2022-08-10T20:34:42.006Z,44.11
2022-08-10T20:38:03.906Z,46.37
2022-08-10T20:41:16.418Z,48.51
2022-08-10T20:44:59.779Z,45.09
2022-08-10T20:48:24.415Z,47.20
2022-08-10T20:51:59.405Z,46.08
2022-08-10T20:55:08.391Z,47.43
2022-08-10T20:58:31.179Z,50.11
2022-08-10T21:02:10.848Z,48.87
2022-08-10T21:05:31.838Z,49.25
2022-08-10T21:08:53.377Z,46.32
2022-08-10T21:12:16.566Z,51.23
2022-08-10T21:15:42.030Z,53.53
2022-08-10T21:19:12.136Z,49.74
2022-08-10T21:22:18.814Z,51.93
2022-08-10T21:25:29.641Z,52.78
2022-08-10T21:28:56.077Z,52.89
2022-08-10T21:32:19.720Z,51.17
2022-08-10T21:35:37.884Z,52.00
2022-08-10T21:38:53.805Z,55.22
2022-08-10T21:42:31.853Z,52.89
2022-08-10T21:46:04.445Z,51.03
2022-08-10T21:49:37.052Z,52.53
2022-08-10T21:53:12.699Z,53.77
2022-08-10T21:56:49.045Z,53.17
2022-08-10T22:00:27.480Z,51.71
2022-08-10T22:03:50.449Z,51.31
2022-08-10T22:07:20.102Z,52.19
2022-08-10T22:10:46.660Z,57.66
2022-08-10T22:14:09.312Z,55.10
2022-08-10T22:18:04.421Z,51.62
2022-08-10T22:21:53.205Z,54.06
2022-08-10T22:25:39.484Z,48.97
2022-08-10T22:29:11.278Z,41.18
2022-08-10T22:32:55.113Z,41.95
2022-08-10T22:36:30.440Z,41.37
2022-08-10T22:40:13.408Z,42.46
2022-08-10T22:43:42.466Z,43.10
2022-08-10T22:47:03.736Z,39.63
2022-08-10T22:50:07.776Z,38.85
2022-08-10T22:53:16.511Z,38.75
2022-08-10T22:56:38.869Z,38.34
2022-08-10T22:59:40.358Z,39.98
2022-08-10T23:02:50.647Z,39.20
2022-08-10T23:05:55.839Z,37.67
2022-08-10T23:09:01.386Z,38.07
2022-08-10T23:12:20.405Z,38.63
2022-08-10T23:15:53.701Z,40.51
2022-08-10T23:19:10.794Z,38.66
2022-08-10T23:22:15.366Z,37.58
2022-08-10T23:25:21.844Z,39.76
2022-08-10T23:28:38.383Z,38.69
2022-08-10T23:32:01.241Z,37.33
2022-08-10T23:36:30.535Z,37.49
2022-08-10T23:38:35.797Z,38.46
2022-08-10T23:41:39.630Z,37.84
2022-08-10T23:44:53.352Z,40.05
2022-08-10T23:48:01.132Z,38.55
2022-08-10T23:51:16.529Z,37.86
2022-08-10T23:54:22.341Z,39.46
2022-08-10T23:57:26.401Z,39.99
